createdAt,value
2022-10-13T00:01:14.654Z,98.81
2022-10-13T00:03:42.179Z,98.20
2022-10-13T00:06:10.941Z,98.31
2022-10-13T00:08:38.180Z,98.12
2022-10-13T00:11:20.433Z,98.46
2022-10-13T00:13:48.475Z,98.38
2022-10-13T00:16:17.964Z,98.61
2022-10-13T00:18:44.463Z,98.82
2022-10-13T00:21:14.341Z,98.97
2022-10-13T00:23:41.627Z,99.32
2022-10-13T00:26:10.174Z,98.49
2022-10-13T00:28:37.796Z,99.31
2022-10-13T00:31:13.880Z,98.89
2022-10-13T00:33:40.241Z,98.77
2022-10-13T00:36:06.728Z,98.75
2022-10-13T00:38:33.387Z,98.95
2022-10-13T00:40:59.930Z,99.17
2022-10-13T00:43:47.222Z,98.37
2022-10-13T00:46:14.441Z,98.37
2022-10-13T00:48:43.156Z,98.02
2022-10-13T00:51:12.020Z,97.77
2022-10-13T00:53:39.684Z,97.90
2022-10-13T00:56:09.745Z,97.48
2022-10-13T00:58:38.339Z,96.86
2022-10-13T01:01:06.713Z,96.98
2022-10-13T01:03:33.693Z,97.33
2022-10-13T01:06:02.456Z,97.16
2022-10-13T01:08:30.092Z,97.21
2022-10-13T01:11:05.268Z,96.77
2022-10-13T01:13:42.593Z,96.68
2022-10-13T01:16:44.052Z,96.11
2022-10-13T01:19:42.765Z,95.76
2022-10-13T01:22:28.372Z,96.52
2022-10-13T01:25:31.138Z,96.54
2022-10-13T01:28:41.010Z,96.78
2022-10-13T01:31:20.629Z,96.49
2022-10-13T01:34:03.648Z,96.20
2022-10-13T01:36:50.433Z,96.21
2022-10-13T01:39:56.276Z,96.03
2022-10-13T01:42:28.468Z,95.92
2022-10-13T01:45:01.638Z,95.92
2022-10-13T01:47:31.323Z,95.94
2022-10-13T01:49:58.548Z,95.77
2022-10-13T01:52:32.184Z,95.75
2022-10-13T01:55:09.375Z,95.82
2022-10-13T01:57:37.540Z,96.05
2022-10-13T02:00:09.080Z,95.22
2022-10-13T02:03:04.888Z,94.79
2022-10-13T02:05:49.024Z,94.67
2022-10-13T02:08:24.437Z,94.32
2022-10-13T02:10:55.466Z,93.92
2022-10-13T02:13:27.492Z,94.32
2022-10-13T02:15:56.781Z,94.02
2022-10-13T02:18:35.056Z,94.11
2022-10-13T02:21:03.281Z,94.23
2022-10-13T02:23:30.266Z,94.23
2022-10-13T02:25:59.376Z,95.05
2022-10-13T02:28:26.806Z,94.91
2022-10-13T02:30:53.258Z,95.20
2022-10-13T02:33:19.680Z,95.22
2022-10-13T02:35:46.034Z,95.01
2022-10-13T02:38:12.723Z,95.27
2022-10-13T02:40:39.184Z,94.98
2022-10-13T02:43:05.686Z,95.03
2022-10-13T02:45:32.301Z,94.75
2022-10-13T02:47:58.694Z,95.18
2022-10-13T02:50:25.111Z,95.30
2022-10-13T02:52:53.014Z,95.55
2022-10-13T02:55:19.419Z,95.41
2022-10-13T02:57:47.540Z,95.46
2022-10-13T03:00:14.768Z,96.17
2022-10-13T03:02:41.716Z,96.07
2022-10-13T03:05:09.026Z,96.61
2022-10-13T03:07:36.054Z,96.42
2022-10-13T03:10:02.661Z,96.85
2022-10-13T03:12:29.016Z,97.09
2022-10-13T03:14:55.411Z,97.40
2022-10-13T03:17:21.817Z,97.58
2022-10-13T03:19:48.315Z,98.00
2022-10-13T03:22:18.190Z,98.10
2022-10-13T03:24:45.095Z,98.40
2022-10-13T03:27:11.547Z,98.49
2022-10-13T03:29:37.959Z,98.58
2022-10-13T03:32:04.736Z,98.92
2022-10-13T03:34:31.199Z,98.93
2022-10-13T03:36:57.802Z,99.02
2022-10-13T03:39:24.250Z,99.01
2022-10-13T03:41:50.681Z,99.26
2022-10-13T03:44:17.047Z,99.27
2022-10-13T03:46:43.510Z,99.02
2022-10-13T03:49:11.739Z,98.97
2022-10-13T03:51:38.786Z,98.76
2022-10-13T03:54:05.406Z,98.97
2022-10-13T03:56:31.792Z,98.61
2022-10-13T03:59:00.081Z,98.40
2022-10-13T04:01:29.368Z,98.95
2022-10-13T04:03:56.661Z,99.03
2022-10-13T04:06:24.427Z,99.06
2022-10-13T04:08:51.619Z,98.99
2022-10-13T04:11:19.239Z,98.98
2022-10-13T04:13:50.532Z,99.24
2022-10-13T04:16:20.255Z,99.11
2022-10-13T04:18:57.822Z,99.09
2022-10-13T04:21:25.681Z,99.29
2022-10-13T04:23:57.158Z,99.36
2022-10-13T04:26:25.008Z,98.96
2022-10-13T04:28:53.018Z,99.02
2022-10-13T04:31:23.303Z,99.02
2022-10-13T04:33:50.842Z,98.79
2022-10-13T04:36:18.429Z,98.62
2022-10-13T04:38:46.597Z,98.79
2022-10-13T04:41:14.991Z,99.19
2022-10-13T04:43:41.954Z,98.44
2022-10-13T04:46:23.225Z,98.37
2022-10-13T04:48:51.559Z,98.54
2022-10-13T04:51:22.557Z,99.07
2022-10-13T04:53:49.393Z,99.23
2022-10-13T04:56:17.638Z,98.92
2022-10-13T04:58:46.018Z,98.99
2022-10-13T05:01:21.883Z,98.89
2022-10-13T05:03:57.438Z,98.93
2022-10-13T05:06:26.853Z,98.71
2022-10-13T05:08:55.980Z,99.23
2022-10-13T05:11:24.132Z,99.00
2022-10-13T05:13:50.778Z,99.17
2022-10-13T05:16:18.407Z,99.27
2022-10-13T05:18:45.432Z,99.20
2022-10-13T05:21:14.466Z,99.82
2022-10-13T05:23:41.824Z,99.63
2022-10-13T05:26:11.412Z,99.96
2022-10-13T05:28:38.250Z,99.96
2022-10-13T05:31:18.799Z,100.00
2022-10-13T05:33:45.990Z,100.00
2022-10-13T05:36:19.287Z,100.00
2022-10-13T05:38:49.351Z,100.00
2022-10-13T05:41:15.734Z,100.00
2022-10-13T05:43:42.889Z,100.00
2022-10-13T05:46:09.713Z,100.00
2022-10-13T05:48:37.274Z,99.99
2022-10-13T05:51:09.443Z,100.00
2022-10-13T05:53:40.226Z,99.80
2022-10-13T05:56:13.748Z,100.00
2022-10-13T05:58:45.791Z,100.00
2022-10-13T06:01:17.280Z,100.00
2022-10-13T06:03:46.424Z,99.80
2022-10-13T06:06:12.817Z,100.00
2022-10-13T06:08:39.440Z,100.00
2022-10-13T06:11:06.977Z,100.00
2022-10-13T06:13:33.751Z,100.00
2022-10-13T06:16:00.361Z,100.00
2022-10-13T06:18:26.762Z,100.00
2022-10-13T06:20:53.141Z,99.69
2022-10-13T06:23:19.612Z,99.89
2022-10-13T06:25:53.014Z,99.70
2022-10-13T06:28:20.780Z,100.00
2022-10-13T06:30:53.273Z,99.36
2022-10-13T06:33:22.263Z,99.92
2022-10-13T06:35:48.794Z,99.36
2022-10-13T06:38:15.160Z,99.45
2022-10-13T06:40:42.174Z,99.85
2022-10-13T06:43:08.595Z,99.98
2022-10-13T06:45:40.670Z,100.00
2022-10-13T06:48:07.090Z,99.48
2022-10-13T06:50:33.596Z,99.05
2022-10-13T06:53:00.094Z,98.77
2022-10-13T06:55:26.856Z,98.74
2022-10-13T06:57:53.254Z,98.22
2022-10-13T07:00:19.958Z,97.72
2022-10-13T07:02:50.446Z,97.82
2022-10-13T07:05:16.978Z,97.79
2022-10-13T07:07:43.556Z,97.40
2022-10-13T07:10:10.086Z,97.69
2022-10-13T07:12:36.452Z,97.44
2022-10-13T07:15:03.011Z,97.36
2022-10-13T07:17:29.550Z,97.27
2022-10-13T07:19:57.965Z,97.61
2022-10-13T07:22:24.806Z,97.52
2022-10-13T07:24:51.181Z,96.69
2022-10-13T07:27:19.438Z,97.06
2022-10-13T07:29:45.954Z,97.26
2022-10-13T07:32:12.335Z,97.34
2022-10-13T07:34:38.769Z,97.10
2022-10-13T07:37:05.125Z,97.13
2022-10-13T07:39:31.859Z,97.39
2022-10-13T07:41:58.245Z,96.91
2022-10-13T07:44:24.728Z,97.26
2022-10-13T07:46:51.098Z,97.54
2022-10-13T07:49:17.769Z,97.71
2022-10-13T07:51:44.421Z,97.63
2022-10-13T07:54:11.092Z,97.06
2022-10-13T07:56:38.279Z,96.64
2022-10-13T07:59:05.293Z,97.07
2022-10-13T08:01:32.172Z,97.00
2022-10-13T08:03:59.146Z,97.03
2022-10-13T08:06:25.801Z,97.24
2022-10-13T08:08:54.244Z,96.94
2022-10-13T08:11:20.747Z,96.99
2022-10-13T08:13:51.203Z,96.71
2022-10-13T08:16:20.500Z,95.61
2022-10-13T08:18:49.225Z,95.52
2022-10-13T08:24:15.546Z,95.41
2022-10-13T08:26:43.359Z,95.00
2022-10-13T08:29:21.486Z,95.22
2022-10-13T08:34:24.708Z,94.14
2022-10-13T08:36:54.203Z,94.56
2022-10-13T08:39:22.831Z,94.57
2022-10-13T08:41:49.603Z,94.06
2022-10-13T08:47:46.797Z,94.00
2022-10-13T08:50:17.636Z,93.66
2022-10-13T08:52:52.583Z,94.29
2022-10-13T08:55:38.275Z,94.24
2022-10-13T08:58:14.652Z,94.06
2022-10-13T09:00:41.652Z,94.38
2022-10-13T09:03:29.062Z,94.74
2022-10-13T09:06:02.855Z,95.01
2022-10-13T09:08:36.237Z,94.31
2022-10-13T09:11:02.822Z,94.37
2022-10-13T09:13:29.199Z,94.10
2022-10-13T09:15:57.974Z,93.85
2022-10-13T09:18:30.588Z,92.63
2022-10-13T09:21:24.145Z,91.69
2022-10-13T09:23:53.856Z,91.53
2022-10-13T09:26:23.728Z,91.43
2022-10-13T09:28:51.483Z,91.08
2022-10-13T09:31:18.072Z,90.85
2022-10-13T09:33:45.672Z,91.09
2022-10-13T09:36:16.193Z,91.32
2022-10-13T09:39:07.542Z,91.38
2022-10-13T09:41:36.066Z,91.36
2022-10-13T09:44:32.044Z,91.54
2022-10-13T09:47:01.973Z,90.79
2022-10-13T09:50:03.305Z,90.45
2022-10-13T09:52:34.665Z,90.19
2022-10-13T09:55:01.571Z,90.18
2022-10-13T09:57:34.253Z,89.64
2022-10-13T10:00:22.069Z,88.95
2022-10-13T10:03:18.842Z,88.82
2022-10-13T10:05:51.977Z,88.46
2022-10-13T10:08:33.809Z,88.49
2022-10-13T10:11:12.467Z,87.88
2022-10-13T10:13:38.968Z,87.12
2022-10-13T10:16:22.749Z,87.07
2022-10-13T10:18:59.131Z,86.29
2022-10-13T10:21:53.451Z,85.29
2022-10-13T10:24:23.010Z,84.81
2022-10-13T10:26:50.980Z,85.12
2022-10-13T10:29:23.595Z,85.38
2022-10-13T10:32:02.206Z,84.79
2022-10-13T10:34:37.074Z,84.68
2022-10-13T10:37:29.198Z,84.30
2022-10-13T10:40:15.130Z,84.13
2022-10-13T10:43:04.425Z,84.28
2022-10-13T10:45:38.831Z,84.06
2022-10-13T10:48:28.261Z,83.41
2022-10-13T10:50:54.809Z,82.95
2022-10-13T10:53:39.754Z,82.87
2022-10-13T10:56:19.366Z,81.24
2022-10-13T10:59:16.566Z,80.73
2022-10-13T11:02:07.225Z,80.84
2022-10-13T11:04:48.809Z,80.60
2022-10-13T11:07:24.072Z,79.48
2022-10-13T11:09:54.023Z,79.29
2022-10-13T11:12:20.791Z,78.82
2022-10-13T11:15:11.377Z,77.64
2022-10-13T11:17:40.079Z,76.99
2022-10-13T11:20:21.618Z,76.15
2022-10-13T11:23:00.291Z,75.17
2022-10-13T11:25:45.640Z,74.94
2022-10-13T11:28:21.285Z,74.44
2022-10-13T11:30:50.365Z,74.20
2022-10-13T11:33:52.447Z,74.06
2022-10-13T11:36:37.823Z,73.90
2022-10-13T11:39:28.120Z,74.70
2022-10-13T11:42:25.247Z,75.34
2022-10-13T11:44:57.370Z,75.17
2022-10-13T11:47:59.322Z,75.13
2022-10-13T11:50:52.525Z,75.15
2022-10-13T11:53:32.294Z,74.72
2022-10-13T11:56:01.465Z,74.87
2022-10-13T11:58:33.236Z,74.85
2022-10-13T12:01:12.293Z,74.75
2022-10-13T12:03:41.501Z,74.90
2022-10-13T12:06:32.077Z,74.84
2022-10-13T12:09:01.081Z,74.90
2022-10-13T12:11:37.635Z,74.71
2022-10-13T12:14:07.606Z,75.06
2022-10-13T12:16:33.992Z,75.23
2022-10-13T12:19:21.912Z,75.15
2022-10-13T12:21:53.644Z,75.47
2022-10-13T12:24:23.626Z,75.09
2022-10-13T12:26:50.724Z,75.36
2022-10-13T12:29:18.318Z,75.72
2022-10-13T12:31:47.278Z,75.69
2022-10-13T12:34:22.970Z,75.47
2022-10-13T12:36:57.232Z,75.52
2022-10-13T12:39:25.225Z,75.28
2022-10-13T12:41:53.363Z,75.63
2022-10-13T12:44:25.842Z,75.58
2022-10-13T12:46:56.215Z,75.63
2022-10-13T12:49:28.196Z,75.70
2022-10-13T12:52:03.496Z,75.93
2022-10-13T12:54:36.157Z,76.37
2022-10-13T12:57:19.263Z,76.45
2022-10-13T12:59:46.036Z,75.89
2022-10-13T13:02:29.845Z,75.60
2022-10-13T13:04:56.265Z,75.04
2022-10-13T13:07:34.159Z,74.42
2022-10-13T13:10:19.953Z,74.11
2022-10-13T13:12:48.749Z,74.12
2022-10-13T13:15:24.143Z,74.66
2022-10-13T13:17:59.561Z,74.33
2022-10-13T13:20:29.089Z,74.32
2022-10-13T13:22:55.926Z,74.24
2022-10-13T13:25:22.764Z,74.10
2022-10-13T13:27:49.260Z,74.20
2022-10-13T13:30:19.581Z,74.38
2022-10-13T13:32:46.329Z,74.50
2022-10-13T13:35:13.099Z,74.90
2022-10-13T13:37:50.438Z,74.86
2022-10-13T13:40:23.313Z,74.76
2022-10-13T13:42:50.069Z,74.38
2022-10-13T13:45:19.322Z,73.75
2022-10-13T13:47:46.304Z,73.55
2022-10-13T13:50:20.217Z,73.22
2022-10-13T13:52:55.877Z,72.03
2022-10-13T13:55:23.248Z,71.41
2022-10-13T13:57:49.743Z,69.97
2022-10-13T14:00:17.348Z,68.97
2022-10-13T14:02:49.275Z,69.29
2022-10-13T14:05:16.115Z,68.97
2022-10-13T14:07:42.500Z,69.56
2022-10-13T14:10:10.140Z,69.06
2022-10-13T14:12:37.024Z,70.07
2022-10-13T14:15:03.863Z,70.56
2022-10-13T14:17:30.283Z,70.43
2022-10-13T14:19:56.902Z,71.06
2022-10-13T14:22:23.599Z,70.89
2022-10-13T14:24:50.400Z,71.57
2022-10-13T14:27:16.850Z,72.15
2022-10-13T14:29:43.279Z,72.65
2022-10-13T14:32:11.471Z,72.54
2022-10-13T14:34:37.886Z,72.94
2022-10-13T14:37:04.477Z,73.05
2022-10-13T14:39:30.866Z,72.78
2022-10-13T14:41:57.292Z,72.38
2022-10-13T14:44:23.740Z,72.38
2022-10-13T14:46:50.195Z,72.55
2022-10-13T14:49:16.556Z,72.77
2022-10-13T14:51:47.666Z,73.35
2022-10-13T14:54:15.790Z,73.78
2022-10-13T14:56:42.155Z,74.24
2022-10-13T14:59:10.910Z,74.64
2022-10-13T15:01:41.282Z,75.14
2022-10-13T15:04:08.418Z,75.83
2022-10-13T15:06:35.135Z,76.30
2022-10-13T15:09:01.749Z,76.64
2022-10-13T15:11:28.461Z,75.69
2022-10-13T15:13:56.162Z,75.38
2022-10-13T15:16:26.215Z,75.42
2022-10-13T15:18:52.725Z,75.61
2022-10-13T15:21:19.577Z,76.00
2022-10-13T15:23:46.591Z,76.46
2022-10-13T15:26:14.861Z,76.64
2022-10-13T15:28:47.313Z,77.12
2022-10-13T15:31:15.807Z,77.11
2022-10-13T15:33:43.909Z,77.44
2022-10-13T15:36:10.311Z,77.94
2022-10-13T15:38:39.204Z,78.22
2022-10-13T15:41:06.912Z,78.35
2022-10-13T15:43:34.266Z,78.74
2022-10-13T15:46:04.148Z,79.12
2022-10-13T15:48:32.263Z,79.58
2022-10-13T15:50:58.721Z,79.95
2022-10-13T15:53:25.932Z,80.70
2022-10-13T15:55:52.680Z,81.20
2022-10-13T15:58:19.310Z,81.48
2022-10-13T16:00:45.819Z,81.98
2022-10-13T16:03:17.269Z,82.06
2022-10-13T16:05:45.379Z,82.50
2022-10-13T16:08:12.601Z,82.35
2022-10-13T16:10:41.107Z,82.67
2022-10-13T16:13:07.821Z,83.02
2022-10-13T16:15:34.233Z,83.05
2022-10-13T16:18:00.646Z,83.24
2022-10-13T16:20:27.109Z,83.50
2022-10-13T16:22:53.942Z,83.57
2022-10-13T16:25:20.384Z,83.87
2022-10-13T16:27:46.773Z,84.09
2022-10-13T16:30:13.337Z,84.33
2022-10-13T16:32:40.385Z,84.58
2022-10-13T16:35:07.421Z,84.57
2022-10-13T16:37:33.883Z,84.75
2022-10-13T16:40:00.270Z,84.65
2022-10-13T16:42:26.686Z,84.87
2022-10-13T16:44:53.049Z,84.69
2022-10-13T16:47:19.420Z,85.08
2022-10-13T16:49:46.845Z,84.97
2022-10-13T16:52:14.568Z,85.41
2022-10-13T16:54:43.582Z,85.37
2022-10-13T16:57:09.937Z,85.44
2022-10-13T16:59:36.305Z,85.50
2022-10-13T17:02:03.016Z,85.83
2022-10-13T17:04:31.041Z,85.78
2022-10-13T17:06:57.524Z,85.75
2022-10-13T17:09:23.906Z,85.97
2022-10-13T17:11:50.273Z,85.86
2022-10-13T17:14:16.627Z,86.09
2022-10-13T17:16:44.067Z,86.00
2022-10-13T17:19:10.457Z,86.36
2022-10-13T17:21:36.924Z,86.50
2022-10-13T17:24:05.286Z,86.15
2022-10-13T17:26:32.951Z,86.58
2022-10-13T17:28:59.500Z,86.52
2022-10-13T17:31:25.892Z,86.62
2022-10-13T17:33:53.121Z,86.60
2022-10-13T17:36:25.917Z,86.84
2022-10-13T17:38:55.014Z,87.01
2022-10-13T17:41:22.485Z,87.09
2022-10-13T17:43:50.674Z,87.21
2022-10-13T17:49:07.573Z,87.18
2022-10-13T17:51:34.188Z,87.51
2022-10-13T17:54:01.005Z,87.55
2022-10-13T17:56:27.945Z,87.13
2022-10-13T17:58:54.836Z,87.86
2022-10-13T18:01:30.219Z,87.65
2022-10-13T18:04:02.860Z,88.05
2022-10-13T18:06:36.778Z,88.18
2022-10-13T18:09:09.798Z,88.31
2022-10-13T18:11:36.897Z,88.16
2022-10-13T18:14:03.908Z,88.35
2022-10-13T18:16:30.477Z,88.47
2022-10-13T18:18:56.974Z,88.37
2022-10-13T18:21:26.815Z,88.31
2022-10-13T18:23:55.626Z,88.71
2022-10-13T18:26:22.621Z,88.87
2022-10-13T18:28:50.181Z,89.11
2022-10-13T18:31:20.325Z,88.98
2022-10-13T18:33:50.037Z,89.19
2022-10-13T18:36:16.889Z,89.08
2022-10-13T18:38:43.748Z,88.98
2022-10-13T18:41:10.185Z,89.29
2022-10-13T18:43:36.571Z,89.60
2022-10-13T18:46:04.758Z,89.34
2022-10-13T18:48:32.671Z,89.06
2022-10-13T18:51:10.704Z,89.21
2022-10-13T18:53:39.003Z,89.84
2022-10-13T18:56:08.380Z,89.68
2022-10-13T18:58:35.431Z,90.12
2022-10-13T19:01:03.404Z,90.01
2022-10-13T19:03:32.048Z,90.28
2022-10-13T19:05:59.087Z,90.26
2022-10-13T19:08:26.447Z,90.49
2022-10-13T19:10:52.798Z,90.55
2022-10-13T19:13:19.171Z,90.22
2022-10-13T19:15:46.012Z,90.37
2022-10-13T19:18:12.921Z,90.37
2022-10-13T19:20:40.861Z,90.79
2022-10-13T19:23:07.342Z,91.08
2022-10-13T19:25:33.842Z,90.68
2022-10-13T19:28:00.259Z,90.73
2022-10-13T19:30:26.850Z,90.85
2022-10-13T19:32:53.861Z,91.08
2022-10-13T19:35:20.320Z,90.80
2022-10-13T19:37:46.709Z,91.04
2022-10-13T19:40:13.076Z,91.16
2022-10-13T19:42:39.457Z,91.11
2022-10-13T19:45:06.730Z,91.12
2022-10-13T19:47:33.240Z,91.20
2022-10-13T19:49:59.610Z,91.66
2022-10-13T19:52:26.164Z,91.53
2022-10-13T19:54:52.588Z,91.87
2022-10-13T19:57:19.494Z,91.93
2022-10-13T19:59:47.844Z,92.34
2022-10-13T20:02:14.583Z,92.23
2022-10-13T20:04:41.125Z,92.56
2022-10-13T20:07:07.531Z,92.53
2022-10-13T20:09:34.391Z,92.66
2022-10-13T20:12:00.837Z,92.90
2022-10-13T20:14:27.217Z,92.65
2022-10-13T20:16:56.348Z,92.87
2022-10-13T20:19:22.697Z,93.22
2022-10-13T20:21:51.580Z,92.75
2022-10-13T20:24:19.091Z,92.90
2022-10-13T20:26:45.543Z,93.03
2022-10-13T20:29:12.147Z,93.26
2022-10-13T20:31:38.595Z,93.22
2022-10-13T20:34:05.079Z,93.32
2022-10-13T20:36:37.505Z,93.52
2022-10-13T20:39:05.099Z,93.53
2022-10-13T20:41:33.111Z,93.13
2022-10-13T20:44:00.611Z,93.48
2022-10-13T20:46:29.573Z,93.81
2022-10-13T20:49:12.876Z,93.54
2022-10-13T20:51:40.560Z,93.72
2022-10-13T20:54:07.608Z,93.73
2022-10-13T20:56:34.191Z,93.97
2022-10-13T20:59:10.056Z,93.40
2022-10-13T21:01:37.166Z,93.65
2022-10-13T21:04:04.480Z,93.53
2022-10-13T21:06:31.077Z,93.83
2022-10-13T21:08:59.963Z,93.45
2022-10-13T21:11:26.340Z,93.85
2022-10-13T21:13:53.071Z,93.75
2022-10-13T21:16:22.480Z,93.21
2022-10-13T21:18:51.005Z,93.85
2022-10-13T21:21:22.554Z,93.49
2022-10-13T21:23:58.124Z,93.82
2022-10-13T21:26:26.079Z,93.79
2022-10-13T21:28:52.968Z,93.75
2022-10-13T21:31:21.568Z,94.14
2022-10-13T21:33:48.872Z,93.84
2022-10-13T21:36:18.886Z,94.36
2022-10-13T21:38:46.284Z,94.30
2022-10-13T21:41:14.144Z,94.06
2022-10-13T21:43:40.720Z,94.69
2022-10-13T21:46:20.512Z,94.46
2022-10-13T21:48:54.637Z,94.19
2022-10-13T21:51:31.095Z,94.42
2022-10-13T21:54:09.414Z,94.46
2022-10-13T21:56:36.960Z,94.45
2022-10-13T21:59:03.701Z,94.33
2022-10-13T22:01:30.514Z,94.28
2022-10-13T22:03:59.724Z,94.46
2022-10-13T22:06:26.910Z,94.61
2022-10-13T22:08:55.200Z,94.30
2022-10-13T22:11:24.465Z,94.15
2022-10-13T22:13:51.021Z,94.45
2022-10-13T22:16:26.947Z,94.04
2022-10-13T22:18:55.626Z,94.23
2022-10-13T22:21:29.953Z,94.48
2022-10-13T22:24:02.096Z,94.27
2022-10-13T22:26:30.443Z,94.74
2022-10-13T22:28:57.836Z,94.49
2022-10-13T22:31:24.265Z,94.31
2022-10-13T22:33:53.538Z,94.12
2022-10-13T22:36:22.417Z,94.20
2022-10-13T22:38:50.241Z,93.86
2022-10-13T22:41:18.823Z,93.46
2022-10-13T22:43:49.871Z,93.11
2022-10-13T22:46:18.105Z,92.77
2022-10-13T22:48:44.958Z,92.73
2022-10-13T22:51:15.933Z,92.62
2022-10-13T22:53:42.391Z,92.08
2022-10-13T22:56:11.893Z,91.80
2022-10-13T22:58:38.902Z,92.36
2022-10-13T23:01:12.950Z,91.74
2022-10-13T23:03:39.810Z,91.84
2022-10-13T23:06:08.261Z,92.06
2022-10-13T23:08:35.197Z,91.71
2022-10-13T23:11:01.588Z,92.04
2022-10-13T23:13:28.004Z,92.03
2022-10-13T23:16:08.917Z,92.34
2022-10-13T23:18:37.545Z,92.22
2022-10-13T23:21:08.367Z,92.26
2022-10-13T23:23:35.091Z,92.51
2022-10-13T23:26:10.869Z,92.14
2022-10-13T23:28:37.808Z,92.06
2022-10-13T23:31:08.102Z,92.14
2022-10-13T23:33:34.736Z,92.50
2022-10-13T23:36:02.477Z,91.93
2022-10-13T23:38:30.691Z,92.09
2022-10-13T23:41:08.917Z,92.31
2022-10-13T23:43:36.049Z,92.39
2022-10-13T23:46:03.440Z,92.39
2022-10-13T23:48:29.808Z,92.25
2022-10-13T23:50:56.522Z,92.07
2022-10-13T23:53:23.129Z,92.35
2022-10-13T23:55:49.557Z,92.42
2022-10-13T23:58:15.949Z,91.93
